AAL310 KDCA-KBOS
Flight info
| Callsign | AAL310 |
|---|---|
| Flight time | 1h 4m |
| Altitude | 33000 |
| Route | SOOKI6 SWANN BROSS Q419 JFK ROBUC3 |
| Aircraft | A320/M-SDE3FGHIRWY/LB1 |
Departure
| Time | 2026-05-06 19:20 |
|---|---|
| Airport | Ronald Reagan Washington National Airport (KDCA) |
Arrival
| Time | 2026-05-06 20:25 |
|---|---|
| Airport | Boston Logan International Airport (KBOS) |
| Time | Latitude | Longitude | Altitude | Speed | Heading |
|---|---|---|---|---|---|
| 2026-05-06 18:46 | 38.85263 | -77.04117 | 27 ft | 0 kts | 176° |
| 2026-05-06 18:58 | 38.85271 | -77.04118 | 33 ft | 2 kts | 176° |
| 2026-05-06 18:58 | 38.85288 | -77.04119 | 25 ft | 2 kts | 173° |
| 2026-05-06 18:58 | 38.85302 | -77.04128 | 27 ft | 2 kts | 104° |
| 2026-05-06 18:59 | 38.85303 | -77.04142 | 27 ft | 0 kts | 56° |
| 2026-05-06 19:01 | 38.85304 | -77.04142 | 25 ft | 1 kts | 56° |
| 2026-05-06 19:01 | 38.85313 | -77.04119 | 29 ft | 6 kts | 65° |
| 2026-05-06 19:01 | 38.85328 | -77.04062 | 25 ft | 7 kts | 74° |
| 2026-05-06 19:02 | 38.85339 | -77.04001 | 24 ft | 7 kts | 80° |
| 2026-05-06 19:02 | 38.85361 | -77.03944 | 25 ft | 8 kts | 27° |
| 2026-05-06 19:02 | 38.85413 | -77.03943 | 25 ft | 7 kts | 355° |
| 2026-05-06 19:02 | 38.85467 | -77.03948 | 29 ft | 10 kts | 355° |
| 2026-05-06 19:03 | 38.85548 | -77.03956 | 27 ft | 14 kts | 355° |
| 2026-05-06 19:03 | 38.85653 | -77.03967 | 27 ft | 15 kts | 355° |
| 2026-05-06 19:03 | 38.85750 | -77.03977 | 28 ft | 13 kts | 355° |
| 2026-05-06 19:03 | 38.85840 | -77.03986 | 28 ft | 13 kts | 356° |
| 2026-05-06 19:04 | 38.85928 | -77.03994 | 27 ft | 12 kts | 357° |
| 2026-05-06 19:04 | 38.86012 | -77.03982 | 30 ft | 12 kts | 10° |
| 2026-05-06 19:04 | 38.86084 | -77.03932 | 24 ft | 13 kts | 62° |
| 2026-05-06 19:04 | 38.86064 | -77.03875 | 24 ft | 7 kts | 153° |
| 2026-05-06 19:05 | 38.86013 | -77.03863 | 24 ft | 7 kts | 173° |
| 2026-05-06 19:05 | 38.85899 | -77.03851 | 28 ft | 43 kts | 176° |
| 2026-05-06 19:05 | 38.85263 | -77.04117 | 25 ft | 0 kts | 176° |
| 2026-05-06 19:07 | 38.85267 | -77.04118 | 25 ft | 2 kts | 176° |
| 2026-05-06 19:07 | 38.85283 | -77.04119 | 30 ft | 2 kts | 176° |
| 2026-05-06 19:07 | 38.85298 | -77.04120 | 27 ft | 2 kts | 141° |
| 2026-05-06 19:07 | 38.85307 | -77.04137 | 29 ft | 2 kts | 73° |
| 2026-05-06 19:08 | 38.85309 | -77.04132 | 28 ft | 3 kts | 69° |
| 2026-05-06 19:08 | 38.85333 | -77.04042 | 26 ft | 15 kts | 73° |
| 2026-05-06 19:08 | 38.85369 | -77.03944 | 23 ft | 11 kts | 20° |
| 2026-05-06 19:08 | 38.85437 | -77.03944 | 28 ft | 9 kts | 356° |
| 2026-05-06 19:09 | 38.85467 | -77.03948 | 29 ft | 0 kts | 353° |
| 2026-05-06 19:09 | 38.85468 | -77.03948 | 29 ft | 0 kts | 353° |
| 2026-05-06 19:17 | 38.85472 | -77.03948 | 30 ft | 3 kts | 353° |
| 2026-05-06 19:17 | 38.85551 | -77.03958 | 27 ft | 20 kts | 355° |
| 2026-05-06 19:17 | 38.85693 | -77.03970 | 28 ft | 20 kts | 356° |
| 2026-05-06 19:17 | 38.85823 | -77.03983 | 28 ft | 18 kts | 355° |
| 2026-05-06 19:18 | 38.85949 | -77.03993 | 27 ft | 18 kts | 358° |
| 2026-05-06 19:18 | 38.86003 | -77.03989 | 30 ft | 1 kts | 11° |
| 2026-05-06 19:18 | 38.86024 | -77.03981 | 26 ft | 5 kts | 19° |
| 2026-05-06 19:18 | 38.86027 | -77.03980 | 26 ft | 0 kts | 19° |
| 2026-05-06 19:19 | 38.86032 | -77.03977 | 27 ft | 4 kts | 21° |
| 2026-05-06 19:19 | 38.86070 | -77.03927 | 24 ft | 10 kts | 74° |
| 2026-05-06 19:19 | 38.86031 | -77.03866 | 24 ft | 9 kts | 168° |
| 2026-05-06 19:19 | 38.85912 | -77.03852 | 28 ft | 42 kts | 176° |
| 2026-05-06 19:20 | 38.85376 | -77.03799 | 25 ft | 109 kts | 175° |
| 2026-05-06 19:20 | 38.84445 | -77.03707 | 108 ft | 152 kts | 173° |
| 2026-05-06 19:20 | 38.83368 | -77.03577 | 707 ft | 157 kts | 180° |
| 2026-05-06 19:20 | 38.82297 | -77.03388 | 1521 ft | 154 kts | 177° |
| 2026-05-06 19:21 | 38.81232 | -77.03134 | 2254 ft | 160 kts | 178° |
| 2026-05-06 19:21 | 38.80104 | -77.02877 | 2798 ft | 171 kts | 176° |
| 2026-05-06 19:21 | 38.78908 | -77.02611 | 3296 ft | 182 kts | 176° |
| 2026-05-06 19:21 | 38.77621 | -77.02341 | 3852 ft | 192 kts | 178° |
| 2026-05-06 19:22 | 38.76276 | -77.02002 | 4416 ft | 206 kts | 166° |
| 2026-05-06 19:22 | 38.75040 | -77.00896 | 4919 ft | 234 kts | 135° |
| 2026-05-06 19:22 | 38.74268 | -76.98994 | 5499 ft | 256 kts | 107° |
| 2026-05-06 19:22 | 38.74162 | -76.96638 | 6086 ft | 274 kts | 81° |
| 2026-05-06 19:23 | 38.74720 | -76.94272 | 6747 ft | 283 kts | 60° |
| 2026-05-06 19:23 | 38.75858 | -76.92196 | 7456 ft | 288 kts | 43° |
| 2026-05-06 19:23 | 38.77334 | -76.90433 | 8223 ft | 293 kts | 34° |
| 2026-05-06 19:23 | 38.78997 | -76.88859 | 8954 ft | 300 kts | 27° |
| 2026-05-06 19:24 | 38.80796 | -76.87442 | 9670 ft | 310 kts | 27° |
| 2026-05-06 19:24 | 38.82678 | -76.85945 | 10156 ft | 328 kts | 26° |
| 2026-05-06 19:24 | 38.84696 | -76.84354 | 10479 ft | 352 kts | 26° |
| 2026-05-06 19:24 | 38.86797 | -76.82528 | 10771 ft | 378 kts | 36° |
| 2026-05-06 19:25 | 38.88788 | -76.80231 | 11333 ft | 390 kts | 39° |
| 2026-05-06 19:25 | 38.90803 | -76.77880 | 12064 ft | 396 kts | 38° |
| 2026-05-06 19:25 | 38.92866 | -76.75487 | 12764 ft | 402 kts | 38° |
| 2026-05-06 19:25 | 38.94955 | -76.73074 | 13547 ft | 406 kts | 38° |
| 2026-05-06 19:26 | 38.97069 | -76.70636 | 14224 ft | 411 kts | 38° |
| 2026-05-06 19:26 | 38.99201 | -76.68169 | 14896 ft | 414 kts | 37° |
| 2026-05-06 19:26 | 39.01350 | -76.65662 | 15606 ft | 418 kts | 38° |
| 2026-05-06 19:26 | 39.03476 | -76.63078 | 16303 ft | 423 kts | 39° |
| 2026-05-06 19:27 | 39.05578 | -76.60411 | 16972 ft | 426 kts | 40° |
| 2026-05-06 19:27 | 39.07675 | -76.57690 | 17609 ft | 430 kts | 41° |
| 2026-05-06 19:27 | 39.09600 | -76.54765 | 18218 ft | 439 kts | 51° |
| 2026-05-06 19:27 | 39.11161 | -76.51290 | 18755 ft | 448 kts | 63° |
| 2026-05-06 19:28 | 39.12230 | -76.47543 | 19239 ft | 456 kts | 73° |
| 2026-05-06 19:28 | 39.12829 | -76.43507 | 19746 ft | 462 kts | 81° |
| 2026-05-06 19:28 | 39.13307 | -76.39384 | 20272 ft | 468 kts | 81° |
| 2026-05-06 19:28 | 39.13780 | -76.35222 | 20771 ft | 473 kts | 81° |
| 2026-05-06 19:29 | 39.14253 | -76.31004 | 21264 ft | 478 kts | 81° |
| 2026-05-06 19:29 | 39.14572 | -76.28122 | 21589 ft | 482 kts | 81° |
| 2026-05-06 19:29 | 39.15047 | -76.23828 | 22081 ft | 487 kts | 81° |
| 2026-05-06 19:29 | 39.15531 | -76.19484 | 22566 ft | 492 kts | 81° |
| 2026-05-06 19:30 | 39.16021 | -76.15155 | 23018 ft | 497 kts | 81° |
| 2026-05-06 19:30 | 39.16537 | -76.10673 | 23453 ft | 502 kts | 81° |
| 2026-05-06 19:30 | 39.17048 | -76.06263 | 23828 ft | 506 kts | 81° |
| 2026-05-06 19:30 | 39.17568 | -76.01763 | 24209 ft | 509 kts | 81° |
| 2026-05-06 19:31 | 39.18178 | -75.97261 | 24610 ft | 511 kts | 74° |
| 2026-05-06 19:31 | 39.19240 | -75.92887 | 24973 ft | 511 kts | 64° |
| 2026-05-06 19:31 | 39.22740 | -75.84996 | 25697 ft | 504 kts | 45° |
| 2026-05-06 19:32 | 39.25079 | -75.81652 | 26060 ft | 498 kts | 36° |
| 2026-05-06 19:32 | 39.27675 | -75.78727 | 26415 ft | 497 kts | 31° |
| 2026-05-06 19:32 | 39.30324 | -75.75837 | 26784 ft | 498 kts | 32° |
| 2026-05-06 19:32 | 39.32973 | -75.72940 | 27159 ft | 500 kts | 32° |
| 2026-05-06 19:33 | 39.35632 | -75.70025 | 27502 ft | 503 kts | 31° |
| 2026-05-06 19:33 | 39.38308 | -75.67090 | 27883 ft | 506 kts | 31° |
| 2026-05-06 19:33 | 39.41001 | -75.64137 | 28208 ft | 510 kts | 31° |
| 2026-05-06 19:33 | 39.43702 | -75.61171 | 28540 ft | 512 kts | 31° |
| 2026-05-06 19:34 | 39.46424 | -75.58175 | 28866 ft | 515 kts | 31° |
| 2026-05-06 19:34 | 39.49158 | -75.55162 | 29162 ft | 518 kts | 31° |
| 2026-05-06 19:34 | 39.51908 | -75.52130 | 29455 ft | 520 kts | 31° |
| 2026-05-06 19:34 | 39.54632 | -75.49126 | 29728 ft | 523 kts | 31° |
| 2026-05-06 19:35 | 39.57445 | -75.46017 | 30005 ft | 526 kts | 31° |
| 2026-05-06 19:35 | 39.60190 | -75.42976 | 30204 ft | 528 kts | 31° |
| 2026-05-06 19:35 | 39.62984 | -75.39872 | 30446 ft | 528 kts | 31° |
| 2026-05-06 19:35 | 39.65769 | -75.36773 | 30775 ft | 527 kts | 31° |
| 2026-05-06 19:36 | 39.68551 | -75.33673 | 31083 ft | 526 kts | 31° |
| 2026-05-06 19:36 | 39.71325 | -75.30585 | 31370 ft | 525 kts | 31° |
| 2026-05-06 19:36 | 39.74099 | -75.27497 | 31667 ft | 525 kts | 31° |
| 2026-05-06 19:36 | 39.76864 | -75.24414 | 31964 ft | 524 kts | 31° |
| 2026-05-06 19:37 | 39.79567 | -75.21182 | 32263 ft | 532 kts | 37° |
| 2026-05-06 19:37 | 39.82055 | -75.17568 | 32517 ft | 536 kts | 40° |
| 2026-05-06 19:37 | 39.84514 | -75.13922 | 32767 ft | 536 kts | 40° |
| 2026-05-06 19:37 | 39.86958 | -75.10282 | 32857 ft | 534 kts | 40° |
| 2026-05-06 19:38 | 39.91813 | -75.03027 | 32879 ft | 530 kts | 40° |
| 2026-05-06 19:38 | 39.96642 | -74.95773 | 32860 ft | 532 kts | 44° |
| 2026-05-06 19:39 | 40.00866 | -74.87733 | 32870 ft | 539 kts | 49° |
| 2026-05-06 19:39 | 40.05007 | -74.79584 | 32869 ft | 539 kts | 49° |
| 2026-05-06 19:40 | 40.09146 | -74.71441 | 32843 ft | 538 kts | 49° |
| 2026-05-06 19:40 | 40.13283 | -74.63284 | 32864 ft | 539 kts | 49° |
| 2026-05-06 19:41 | 40.17417 | -74.55102 | 32851 ft | 539 kts | 49° |
| 2026-05-06 19:41 | 40.22079 | -74.47635 | 32836 ft | 520 kts | 33° |
| 2026-05-06 19:42 | 40.27591 | -74.41679 | 32837 ft | 514 kts | 28° |
| 2026-05-06 19:42 | 40.33097 | -74.35798 | 32866 ft | 514 kts | 29° |
| 2026-05-06 19:43 | 40.38629 | -74.29857 | 32831 ft | 514 kts | 29° |
| 2026-05-06 19:43 | 40.44158 | -74.23910 | 32833 ft | 514 kts | 29° |
| 2026-05-06 19:44 | 40.49689 | -74.17952 | 32875 ft | 515 kts | 30° |
| 2026-05-06 19:44 | 40.52316 | -74.14686 | 32721 ft | 527 kts | 40° |
| 2026-05-06 19:44 | 40.54569 | -74.10818 | 32470 ft | 539 kts | 51° |
| 2026-05-06 19:45 | 40.56326 | -74.06482 | 32224 ft | 547 kts | 63° |
| 2026-05-06 19:45 | 40.57592 | -74.01686 | 31974 ft | 552 kts | 70° |
| 2026-05-06 19:45 | 40.58712 | -73.96849 | 31702 ft | 551 kts | 70° |
| 2026-05-06 19:45 | 40.59833 | -73.92022 | 31463 ft | 550 kts | 70° |
| 2026-05-06 19:46 | 40.60950 | -73.87215 | 31219 ft | 550 kts | 70° |
| 2026-05-06 19:46 | 40.62181 | -73.82458 | 30975 ft | 547 kts | 64° |
| 2026-05-06 19:46 | 40.63808 | -73.77967 | 30770 ft | 542 kts | 56° |
| 2026-05-06 19:46 | 40.65819 | -73.73798 | 30526 ft | 536 kts | 47° |
| 2026-05-06 19:47 | 40.68164 | -73.70025 | 30285 ft | 530 kts | 40° |
| 2026-05-06 19:47 | 40.70644 | -73.66426 | 30046 ft | 530 kts | 41° |
| 2026-05-06 19:47 | 40.73116 | -73.62818 | 29754 ft | 530 kts | 41° |
| 2026-05-06 19:47 | 40.75571 | -73.59217 | 29485 ft | 529 kts | 41° |
| 2026-05-06 19:48 | 40.78027 | -73.55605 | 29207 ft | 527 kts | 41° |
| 2026-05-06 19:48 | 40.80472 | -73.52002 | 28982 ft | 526 kts | 41° |
| 2026-05-06 19:48 | 40.82910 | -73.48402 | 28715 ft | 524 kts | 42° |
| 2026-05-06 19:48 | 40.85336 | -73.44819 | 28446 ft | 522 kts | 42° |
| 2026-05-06 19:49 | 40.87760 | -73.41246 | 28177 ft | 520 kts | 42° |
| 2026-05-06 19:49 | 40.90163 | -73.37703 | 27915 ft | 517 kts | 42° |
| 2026-05-06 19:49 | 40.92560 | -73.34165 | 27654 ft | 515 kts | 42° |
| 2026-05-06 19:49 | 40.94945 | -73.30635 | 27397 ft | 513 kts | 42° |
| 2026-05-06 19:50 | 40.97306 | -73.27133 | 27151 ft | 509 kts | 43° |
| 2026-05-06 19:50 | 40.99653 | -73.23648 | 26902 ft | 506 kts | 43° |
| 2026-05-06 19:50 | 41.01993 | -73.20170 | 26649 ft | 504 kts | 43° |
| 2026-05-06 19:50 | 41.04316 | -73.16718 | 26399 ft | 502 kts | 43° |
| 2026-05-06 19:51 | 41.06635 | -73.13269 | 26154 ft | 500 kts | 43° |
| 2026-05-06 19:51 | 41.08944 | -73.09833 | 25837 ft | 497 kts | 43° |
| 2026-05-06 19:51 | 41.11235 | -73.06421 | 25509 ft | 494 kts | 43° |
| 2026-05-06 19:51 | 41.13505 | -73.03033 | 24993 ft | 489 kts | 44° |
| 2026-05-06 19:52 | 41.15753 | -72.99670 | 24432 ft | 484 kts | 44° |
| 2026-05-06 19:52 | 41.17969 | -72.96348 | 23876 ft | 479 kts | 45° |
| 2026-05-06 19:52 | 41.20135 | -72.93011 | 23270 ft | 476 kts | 49° |
| 2026-05-06 19:52 | 41.21963 | -72.89340 | 22916 ft | 477 kts | 59° |
| 2026-05-06 19:53 | 41.23479 | -72.85425 | 22868 ft | 477 kts | 62° |
| 2026-05-06 19:53 | 41.24967 | -72.81538 | 22877 ft | 478 kts | 62° |
| 2026-05-06 19:53 | 41.26481 | -72.77598 | 22874 ft | 478 kts | 62° |
| 2026-05-06 19:53 | 41.27994 | -72.73656 | 22875 ft | 478 kts | 62° |
| 2026-05-06 19:54 | 41.29502 | -72.69716 | 22890 ft | 479 kts | 62° |
| 2026-05-06 19:54 | 41.31010 | -72.65766 | 22857 ft | 478 kts | 62° |
| 2026-05-06 19:54 | 41.32511 | -72.61823 | 22871 ft | 478 kts | 62° |
| 2026-05-06 19:54 | 41.34014 | -72.57866 | 22865 ft | 478 kts | 62° |
| 2026-05-06 19:55 | 41.35512 | -72.53917 | 22871 ft | 478 kts | 62° |
| 2026-05-06 19:55 | 41.37009 | -72.49964 | 22870 ft | 478 kts | 62° |
| 2026-05-06 19:55 | 41.38504 | -72.46013 | 22868 ft | 478 kts | 62° |
| 2026-05-06 19:55 | 41.40000 | -72.42055 | 22866 ft | 478 kts | 62° |
| 2026-05-06 19:56 | 41.41492 | -72.38098 | 22870 ft | 478 kts | 63° |
| 2026-05-06 19:56 | 41.42979 | -72.34145 | 22869 ft | 478 kts | 63° |
| 2026-05-06 19:56 | 41.44466 | -72.30186 | 22868 ft | 478 kts | 63° |
| 2026-05-06 19:56 | 41.45955 | -72.26227 | 22866 ft | 477 kts | 62° |
| 2026-05-06 19:57 | 41.47446 | -72.22268 | 22857 ft | 477 kts | 63° |
| 2026-05-06 19:57 | 41.48908 | -72.18365 | 22844 ft | 477 kts | 63° |
| 2026-05-06 19:57 | 41.50374 | -72.14393 | 22789 ft | 476 kts | 63° |
| 2026-05-06 19:57 | 41.51817 | -72.10444 | 22222 ft | 472 kts | 63° |
| 2026-05-06 19:58 | 41.53243 | -72.06512 | 21852 ft | 470 kts | 64° |
| 2026-05-06 19:58 | 41.54662 | -72.02586 | 21599 ft | 469 kts | 64° |
| 2026-05-06 19:58 | 41.56060 | -71.98653 | 21335 ft | 468 kts | 65° |
| 2026-05-06 19:58 | 41.57356 | -71.94688 | 21077 ft | 466 kts | 67° |
| 2026-05-06 19:59 | 41.58567 | -71.90680 | 20802 ft | 464 kts | 69° |
| 2026-05-06 19:59 | 41.59721 | -71.86661 | 20546 ft | 462 kts | 70° |
| 2026-05-06 19:59 | 41.60852 | -71.82643 | 20292 ft | 461 kts | 70° |
| 2026-05-06 19:59 | 41.61987 | -71.78640 | 20029 ft | 459 kts | 70° |
| 2026-05-06 20:00 | 41.63132 | -71.74663 | 19765 ft | 457 kts | 69° |
| 2026-05-06 20:00 | 41.64286 | -71.70710 | 19508 ft | 456 kts | 69° |
| 2026-05-06 20:00 | 41.65441 | -71.66801 | 19314 ft | 445 kts | 69° |
| 2026-05-06 20:00 | 41.66559 | -71.63022 | 19194 ft | 430 kts | 69° |
| 2026-05-06 20:01 | 41.67640 | -71.59355 | 19076 ft | 418 kts | 69° |
| 2026-05-06 20:01 | 41.68694 | -71.55770 | 18800 ft | 411 kts | 69° |
| 2026-05-06 20:01 | 41.69734 | -71.52230 | 18400 ft | 408 kts | 69° |
| 2026-05-06 20:01 | 41.70767 | -71.48708 | 17983 ft | 405 kts | 69° |
| 2026-05-06 20:02 | 41.71793 | -71.45195 | 17535 ft | 403 kts | 69° |
| 2026-05-06 20:02 | 41.72959 | -71.41797 | 17111 ft | 401 kts | 60° |
| 2026-05-06 20:02 | 41.74337 | -71.38572 | 16691 ft | 399 kts | 59° |
| 2026-05-06 20:02 | 41.75715 | -71.35356 | 16271 ft | 397 kts | 60° |
| 2026-05-06 20:03 | 41.77082 | -71.32166 | 15863 ft | 395 kts | 60° |
| 2026-05-06 20:03 | 41.78426 | -71.29019 | 15489 ft | 393 kts | 60° |
| 2026-05-06 20:03 | 41.79779 | -71.25846 | 15117 ft | 391 kts | 60° |
| 2026-05-06 20:03 | 41.81123 | -71.22696 | 14819 ft | 387 kts | 60° |
| 2026-05-06 20:04 | 41.82441 | -71.19608 | 14509 ft | 376 kts | 60° |
| 2026-05-06 20:04 | 41.83734 | -71.16576 | 13888 ft | 373 kts | 61° |
| 2026-05-06 20:04 | 41.85013 | -71.13564 | 13201 ft | 370 kts | 62° |
| 2026-05-06 20:04 | 41.86278 | -71.10585 | 12541 ft | 366 kts | 61° |
| 2026-05-06 20:05 | 41.87555 | -71.07622 | 12042 ft | 366 kts | 61° |
| 2026-05-06 20:05 | 41.88829 | -71.04687 | 11698 ft | 363 kts | 61° |
| 2026-05-06 20:05 | 41.90093 | -71.01780 | 11457 ft | 358 kts | 61° |
| 2026-05-06 20:05 | 41.91341 | -70.98897 | 11304 ft | 356 kts | 62° |
| 2026-05-06 20:06 | 41.92580 | -70.96019 | 11143 ft | 355 kts | 62° |
| 2026-05-06 20:06 | 41.93815 | -70.93141 | 10981 ft | 354 kts | 62° |
| 2026-05-06 20:06 | 41.95043 | -70.90286 | 10827 ft | 353 kts | 62° |
| 2026-05-06 20:06 | 41.96272 | -70.87427 | 10619 ft | 353 kts | 63° |
| 2026-05-06 20:07 | 41.97496 | -70.84576 | 10502 ft | 353 kts | 63° |
| 2026-05-06 20:07 | 41.98720 | -70.81719 | 10347 ft | 352 kts | 63° |
| 2026-05-06 20:07 | 41.99936 | -70.78873 | 10210 ft | 351 kts | 63° |
| 2026-05-06 20:07 | 42.01230 | -70.76088 | 10038 ft | 352 kts | 54° |
| 2026-05-06 20:08 | 42.02830 | -70.73588 | 9647 ft | 352 kts | 49° |
| 2026-05-06 20:08 | 42.04463 | -70.71150 | 9311 ft | 349 kts | 49° |
| 2026-05-06 20:08 | 42.06083 | -70.68737 | 8983 ft | 346 kts | 49° |
| 2026-05-06 20:08 | 42.07687 | -70.66342 | 8655 ft | 343 kts | 49° |
| 2026-05-06 20:09 | 42.09307 | -70.64015 | 8338 ft | 341 kts | 42° |
| 2026-05-06 20:09 | 42.11215 | -70.62162 | 8011 ft | 336 kts | 26° |
| 2026-05-06 20:09 | 42.13354 | -70.60968 | 7699 ft | 330 kts | 11° |
| 2026-05-06 20:09 | 42.15576 | -70.60314 | 7383 ft | 326 kts | 6° |
| 2026-05-06 20:10 | 42.17790 | -70.59698 | 7079 ft | 324 kts | 6° |
| 2026-05-06 20:10 | 42.19995 | -70.59074 | 6759 ft | 323 kts | 6° |
| 2026-05-06 20:10 | 42.22162 | -70.58460 | 6465 ft | 322 kts | 6° |
| 2026-05-06 20:10 | 42.24350 | -70.57847 | 6140 ft | 320 kts | 7° |
| 2026-05-06 20:11 | 42.26530 | -70.57237 | 5833 ft | 319 kts | 7° |
| 2026-05-06 20:11 | 42.28695 | -70.56632 | 5529 ft | 317 kts | 6° |
| 2026-05-06 20:11 | 42.30857 | -70.56431 | 5236 ft | 306 kts | 347° |
| 2026-05-06 20:11 | 42.32873 | -70.57045 | 5029 ft | 292 kts | 328° |
| 2026-05-06 20:12 | 42.34602 | -70.58328 | 5016 ft | 278 kts | 312° |
| 2026-05-06 20:12 | 42.36010 | -70.60052 | 5040 ft | 272 kts | 304° |
| 2026-05-06 20:12 | 42.37363 | -70.61836 | 5012 ft | 271 kts | 304° |
| 2026-05-06 20:12 | 42.38717 | -70.63610 | 5009 ft | 271 kts | 304° |
| 2026-05-06 20:13 | 42.39616 | -70.64787 | 4938 ft | 271 kts | 304° |
| 2026-05-06 20:13 | 42.40971 | -70.66553 | 4745 ft | 270 kts | 305° |
| 2026-05-06 20:13 | 42.42317 | -70.68314 | 4542 ft | 269 kts | 304° |
| 2026-05-06 20:13 | 42.43657 | -70.70072 | 4337 ft | 268 kts | 304° |
| 2026-05-06 20:14 | 42.44993 | -70.71829 | 4129 ft | 267 kts | 304° |
| 2026-05-06 20:14 | 42.46320 | -70.73578 | 3929 ft | 266 kts | 304° |
| 2026-05-06 20:14 | 42.47641 | -70.75325 | 3727 ft | 264 kts | 304° |
| 2026-05-06 20:14 | 42.48942 | -70.77039 | 3524 ft | 256 kts | 304° |
| 2026-05-06 20:15 | 42.50196 | -70.78683 | 3325 ft | 246 kts | 304° |
| 2026-05-06 20:15 | 42.51426 | -70.80230 | 3129 ft | 242 kts | 312° |
| 2026-05-06 20:15 | 42.53583 | -70.81274 | 2986 ft | 264 kts | 351° |
| 2026-05-06 20:15 | 42.54834 | -70.81040 | 3005 ft | 274 kts | 12° |
| 2026-05-06 20:16 | 42.56653 | -70.80181 | 3010 ft | 279 kts | 15° |
| 2026-05-06 20:16 | 42.58488 | -70.79343 | 3005 ft | 275 kts | 6° |
| 2026-05-06 20:16 | 42.60264 | -70.79356 | 3008 ft | 246 kts | 332° |
| 2026-05-06 20:16 | 42.61648 | -70.80457 | 3008 ft | 215 kts | 297° |
| 2026-05-06 20:17 | 42.62226 | -70.82116 | 3007 ft | 186 kts | 263° |
| 2026-05-06 20:17 | 42.61977 | -70.83727 | 3007 ft | 173 kts | 239° |
| 2026-05-06 20:17 | 42.61428 | -70.85177 | 3006 ft | 171 kts | 236° |
| 2026-05-06 20:17 | 42.60849 | -70.86572 | 3006 ft | 168 kts | 236° |
| 2026-05-06 20:18 | 42.60265 | -70.87946 | 3000 ft | 167 kts | 236° |
| 2026-05-06 20:18 | 42.59527 | -70.89155 | 2996 ft | 169 kts | 217° |
| 2026-05-06 20:18 | 42.58475 | -70.89832 | 3009 ft | 164 kts | 204° |
| 2026-05-06 20:18 | 42.57451 | -70.90325 | 3032 ft | 147 kts | 205° |
| 2026-05-06 20:19 | 42.56518 | -70.90778 | 3018 ft | 139 kts | 205° |
| 2026-05-06 20:19 | 42.55618 | -70.91217 | 3012 ft | 136 kts | 205° |
| 2026-05-06 20:19 | 42.54731 | -70.91650 | 2999 ft | 136 kts | 205° |
| 2026-05-06 20:19 | 42.53834 | -70.92087 | 2991 ft | 137 kts | 205° |
| 2026-05-06 20:20 | 42.52937 | -70.92524 | 3009 ft | 137 kts | 205° |
| 2026-05-06 20:20 | 42.52037 | -70.92963 | 2973 ft | 138 kts | 205° |
| 2026-05-06 20:20 | 42.51135 | -70.93402 | 2856 ft | 137 kts | 204° |
| 2026-05-06 20:20 | 42.50244 | -70.93835 | 2715 ft | 136 kts | 204° |
| 2026-05-06 20:21 | 42.49353 | -70.94268 | 2544 ft | 137 kts | 204° |
| 2026-05-06 20:21 | 42.48456 | -70.94705 | 2374 ft | 138 kts | 202° |
| 2026-05-06 20:21 | 42.47562 | -70.95139 | 2186 ft | 137 kts | 203° |
| 2026-05-06 20:21 | 42.46650 | -70.95582 | 1992 ft | 142 kts | 202° |
| 2026-05-06 20:22 | 42.45713 | -70.96038 | 1809 ft | 142 kts | 201° |
| 2026-05-06 20:22 | 42.44817 | -70.96472 | 1616 ft | 132 kts | 201° |
| 2026-05-06 20:22 | 42.43971 | -70.96883 | 1462 ft | 127 kts | 202° |
| 2026-05-06 20:22 | 42.43151 | -70.97280 | 1279 ft | 124 kts | 201° |
| 2026-05-06 20:23 | 42.42326 | -70.97681 | 1099 ft | 126 kts | 200° |
| 2026-05-06 20:23 | 42.41514 | -70.98075 | 926 ft | 125 kts | 200° |
| 2026-05-06 20:23 | 42.40670 | -70.98484 | 770 ft | 126 kts | 200° |
| 2026-05-06 20:23 | 42.39844 | -70.98891 | 636 ft | 128 kts | 202° |
| 2026-05-06 20:24 | 42.39013 | -70.99304 | 392 ft | 125 kts | 198° |
| 2026-05-06 20:24 | 42.38188 | -70.99682 | 216 ft | 125 kts | 198° |
| 2026-05-06 20:24 | 42.37387 | -71.00082 | 89 ft | 121 kts | 198° |
| 2026-05-06 20:24 | 42.36646 | -71.00436 | 28 ft | 99 kts | 199° |
| 2026-05-06 20:25 | 42.36150 | -71.00674 | 24 ft | 51 kts | 199° |
| 2026-05-06 20:25 | 42.36012 | -71.00765 | 22 ft | 13 kts | 223° |
| 2026-05-06 20:25 | 42.35940 | -71.00875 | 22 ft | 18 kts | 230° |
| 2026-05-06 20:25 | 42.35863 | -71.00998 | 22 ft | 16 kts | 230° |
| 2026-05-06 20:26 | 42.35833 | -71.01133 | 26 ft | 15 kts | 276° |
| 2026-05-06 20:26 | 42.35834 | -71.01144 | 25 ft | 0 kts | 277° |
| 2026-05-06 20:26 | 42.35834 | -71.01145 | 25 ft | 0 kts | 277° |
| 2026-05-06 20:26 | 42.35842 | -71.01226 | 25 ft | 17 kts | 277° |
| 2026-05-06 20:27 | 42.35860 | -71.01378 | 28 ft | 16 kts | 277° |
| 2026-05-06 20:27 | 42.35878 | -71.01521 | 29 ft | 15 kts | 281° |
| 2026-05-06 20:27 | 42.35896 | -71.01650 | 31 ft | 13 kts | 281° |
| 2026-05-06 20:27 | 42.35912 | -71.01759 | 30 ft | 11 kts | 282° |
| 2026-05-06 20:28 | 42.35950 | -71.01892 | 27 ft | 20 kts | 299° |
| 2026-05-06 20:28 | 42.36017 | -71.02046 | 26 ft | 18 kts | 302° |
| 2026-05-06 20:28 | 42.36079 | -71.02180 | 26 ft | 16 kts | 301° |
| 2026-05-06 20:28 | 42.36148 | -71.02272 | 24 ft | 13 kts | 343° |
| 2026-05-06 20:29 | 42.36232 | -71.02254 | 24 ft | 12 kts | 20° |
| 2026-05-06 20:29 | 42.36304 | -71.02240 | 24 ft | 9 kts | 358° |
| 2026-05-06 20:29 | 42.36355 | -71.02234 | 26 ft | 6 kts | 28° |
| 2026-05-06 20:29 | 42.36374 | -71.02203 | 29 ft | 2 kts | 54° |